Time;durP1;ratioP1;P1;durP2;ratioP2;P2;SDS_P1;SDS_P2;PMS_P1;PMS_P2;Temp;Humidity;BMP_temperature;BMP_pressure;BME280_temperature;BME280_humidity;BME280_pressure;Samples;Min_cycle;Max_cycle;Signal;HPM_P1;HPM_P2
2022/09/09 00:00:23;;;;;;;4.45;2.50;;;;;;;19.85;53.69;100272.63;5067729;28;19908;-30
2022/09/09 00:02:54;;;;;;;4.45;2.88;;;;;;;19.91;53.68;100258.00;5049562;28;20119;-31
2022/09/09 00:05:31;;;;;;;5.65;2.85;;;;;;;20.19;52.70;100282.78;5049666;28;20059;-29
2022/09/09 00:08:03;;;;;;;5.03;2.83;;;;;;;20.11;54.63;100284.19;5068061;28;20031;-27
2022/09/09 00:10:41;;;;;;;4.68;2.85;;;;;;;20.01;53.33;100274.19;5049355;28;20043;-31
2022/09/09 00:13:18;;;;;;;6.00;2.90;;;;;;;20.05;52.97;100288.78;5067767;28;20024;-28
2022/09/09 00:16:27;;;;;;;5.40;2.53;;;;;;;20.30;53.44;100287.06;5066179;28;20028;-28
2022/09/09 00:18:59;;;;;;;5.22;2.90;;;;;;;20.07;53.12;100278.50;5067415;28;20107;-30
2022/09/09 00:21:36;;;;;;;4.22;2.75;;;;;;;19.88;54.43;100272.09;5049534;28;20032;-27
2022/09/09 00:24:29;;;;;;;4.90;2.50;;;;;;;19.93;53.48;100266.63;5049181;28;20028;-32
2022/09/09 00:27:16;;;;;;;4.70;2.67;;;;;;;20.32;53.36;100278.66;5032545;28;20391;-28
2022/09/09 00:29:47;;;;;;;3.40;2.20;;;;;;;20.11;53.66;100280.66;5067372;28;20025;-27
2022/09/09 00:32:18;;;;;;;5.88;2.42;;;;;;;19.91;54.36;100274.22;5049160;28;20271;-28
2022/09/09 00:35:13;;;;;;;4.43;2.75;;;;;;;19.73;54.65;100282.94;5067107;28;20032;-27
2022/09/09 00:37:41;;;;;;;4.97;2.60;;;;;;;19.46;55.21;100278.63;5058807;28;20041;-29
2022/09/09 00:40:26;;;;;;;5.65;2.63;;;;;;;19.77;55.42;100284.81;5067270;28;20089;-27
2022/09/09 00:43:20;;;;;;;7.03;3.20;;;;;;;19.98;54.96;100280.16;5067178;28;20381;-29
2022/09/09 00:45:52;;;;;;;5.43;2.55;;;;;;;19.97;54.70;100281.25;5067065;28;20028;-29
2022/09/09 00:48:18;;;;;;;4.00;2.50;;;;;;;19.55;56.33;100281.59;5066832;28;20064;-28
2022/09/09 00:51:00;;;;;;;5.03;2.63;;;;;;;19.48;56.00;100287.28;5065215;28;20098;-27
2022/09/09 00:53:31;;;;;;;4.78;2.40;;;;;;;19.67;55.67;100292.94;5067122;28;20040;-28
2022/09/09 00:56:21;;;;;;;3.60;2.10;;;;;;;19.51;56.09;100267.78;5066701;28;20025;-28
2022/09/09 00:59:15;;;;;;;5.57;2.10;;;;;;;19.54;56.17;100280.78;5048958;28;20226;-29
2022/09/09 01:01:40;;;;;;;4.32;2.10;;;;;;;19.20;57.51;100280.53;5066865;28;20033;-29
2022/09/09 01:04:15;;;;;;;4.05;2.47;;;;;;;19.18;57.73;100282.72;5066683;28;20388;-29
2022/09/09 01:06:41;;;;;;;6.28;2.65;;;;;;;19.03;58.45;100281.63;5067017;28;20035;-29
2022/09/09 01:09:58;;;;;;;4.40;2.50;;;;;;;19.25;57.94;100273.25;5066981;28;20036;-29
2022/09/09 01:12:38;;;;;;;4.80;2.42;;;;;;;19.35;58.16;100277.84;5021521;28;20040;-29
2022/09/09 01:15:25;;;;;;;6.82;2.38;;;;;;;19.76;57.22;100282.41;5066895;28;20094;-27
2022/09/09 01:17:54;;;;;;;4.68;2.28;;;;;;;20.17;55.48;100284.97;5066865;28;20028;-29
2022/09/09 01:20:31;;;;;;;4.35;2.22;;;;;;;20.37;55.23;100271.34;5048481;28;20044;-33
2022/09/09 01:23:02;;;;;;;4.72;2.30;;;;;;;20.80;54.33;100290.59;5048386;28;20021;-29
2022/09/09 01:25:43;;;;;;;3.33;2.22;;;;;;;20.84;54.10;100293.53;5066878;28;20055;-27
2022/09/09 01:28:15;;;;;;;3.90;2.45;;;;;;;20.88;53.66;100281.03;5066844;28;20027;-29
2022/09/09 01:30:42;;;;;;;4.53;2.13;;;;;;;20.92;53.61;100275.88;5048243;28;20048;-30
2022/09/09 01:33:13;;;;;;;8.20;2.67;;;;;;;20.93;53.79;100277.50;5048424;28;20028;-31
2022/09/09 01:36:07;;;;;;;4.03;2.40;;;;;;;21.12;53.52;100286.56;5048381;28;20029;-29
2022/09/09 01:38:35;;;;;;;5.03;2.40;;;;;;;20.99;53.85;100281.81;5056920;28;20037;-27
2022/09/09 01:41:01;;;;;;;4.45;2.22;;;;;;;21.06;53.45;100283.09;5066381;28;20035;-31
2022/09/09 01:43:27;;;;;;;6.10;2.30;;;;;;;20.97;53.38;100281.28;5048378;28;20036;-30
2022/09/09 01:45:55;;;;;;;4.60;2.60;;;;;;;20.60;55.02;100274.47;5064645;28;20462;-29
2022/09/09 01:48:25;;;;;;;4.78;2.50;;;;;;;20.09;56.97;100293.66;5048493;28;20097;-31
2022/09/09 01:50:50;;;;;;;6.68;2.47;;;;;;;20.17;56.67;100296.59;5048487;28;20033;-29
2022/09/09 01:53:19;;;;;;;5.22;2.55;;;;;;;19.80;56.73;100286.19;5067066;28;20407;-30
2022/09/09 01:56:02;;;;;;;4.93;2.45;;;;;;;19.43;57.84;100306.22;5066424;28;20029;-29
2022/09/09 01:58:46;;;;;;;4.00;2.42;;;;;;;20.11;57.09;100284.19;5066287;28;20025;-28
2022/09/09 02:01:17;;;;;;;4.50;2.40;;;;;;;20.25;56.60;100300.66;5066197;28;20044;-29
2022/09/09 02:03:50;;;;;;;5.32;2.72;;;;;;;19.78;57.71;100297.28;5051823;28;20052;-28
2022/09/09 02:06:37;;;;;;;6.20;3.00;;;;;;;19.44;58.65;100286.22;5051951;28;20033;-28
2022/09/09 02:09:06;;;;;;;5.80;2.90;;;;;;;19.49;58.64;100283.47;5070153;28;20028;-30
2022/09/09 02:11:33;;;;;;;4.72;2.70;;;;;;;20.09;56.51;100288.25;5051775;28;20070;-31
2022/09/09 02:14:23;;;;;;;4.32;2.75;;;;;;;20.10;57.20;100295.28;5052027;28;20115;-29
2022/09/09 02:16:59;;;;;;;7.28;3.10;;;;;;;20.38;56.91;100289.19;5051768;28;20028;-28
2022/09/09 02:19:33;;;;;;;4.50;2.63;;;;;;;20.54;55.25;100281.00;5051652;28;20637;-28
2022/09/09 02:22:00;;;;;;;6.40;3.10;;;;;;;20.79;54.91;100278.13;5051920;28;20120;-32
2022/09/09 02:24:29;;;;;;;7.70;3.22;;;;;;;20.70;53.91;100269.00;5051516;28;20082;-31
2022/09/09 02:26:58;;;;;;;7.65;3.25;;;;;;;19.64;57.40;100267.25;5051531;28;20123;-31
2022/09/09 02:29:37;;;;;;;8.07;3.75;;;;;;;18.99;59.43;100277.03;5051575;28;20025;-27
2022/09/09 02:32:07;;;;;;;7.50;3.13;;;;;;;18.65;60.31;100281.03;5068467;28;20125;-29
2022/09/09 02:34:36;;;;;;;6.32;3.40;;;;;;;18.61;60.74;100284.50;5069650;28;20060;-30
2022/09/09 02:37:03;;;;;;;7.60;3.92;;;;;;;18.24;61.22;100261.19;5051513;28;20029;-27
2022/09/09 02:39:29;;;;;;;8.25;3.42;;;;;;;18.32;61.38;100276.88;5069580;28;20035;-29
2022/09/09 02:41:54;;;;;;;6.75;3.40;;;;;;;17.81;63.23;100271.22;5069626;28;20029;-28
2022/09/09 02:44:20;;;;;;;6.68;3.08;;;;;;;17.76;63.35;100279.31;5069036;28;20033;-27
2022/09/09 02:46:45;;;;;;;9.63;3.30;;;;;;;17.94;63.21;100284.28;5069451;28;20059;-27
2022/09/09 02:49:41;;;;;;;6.07;3.30;;;;;;;17.82;63.78;100287.16;5069346;28;20020;-29
2022/09/09 02:52:13;;;;;;;6.38;3.08;;;;;;;17.59;63.78;100253.31;5069263;28;20069;-27
2022/09/09 02:54:39;;;;;;;5.53;3.03;;;;;;;17.68;63.63;100264.41;5050673;28;20128;-28
2022/09/09 02:57:29;;;;;;;6.13;3.17;;;;;;;17.75;64.75;100288.47;5069244;28;20119;-28
2022/09/09 02:59:57;;;;;;;7.68;3.20;;;;;;;17.97;63.48;100286.44;5069123;28;20582;-27
2022/09/09 03:02:24;;;;;;;6.32;3.20;;;;;;;17.70;64.39;100285.75;5050506;28;20037;-28
2022/09/09 03:04:52;;;;;;;6.20;3.17;;;;;;;17.49;64.69;100282.91;5069076;28;20110;-27
2022/09/09 03:07:19;;;;;;;6.45;3.58;;;;;;;17.43;65.27;100270.47;5068584;28;20021;-28
2022/09/09 03:09:45;;;;;;;8.63;3.47;;;;;;;17.55;64.81;100279.19;5068852;28;20038;-28
2022/09/09 03:12:11;;;;;;;8.98;3.35;;;;;;;17.26;65.66;100286.78;5050243;28;20500;-29
2022/09/09 03:14:37;;;;;;;10.90;3.90;;;;;;;17.30;65.39;100297.84;5068837;28;20033;-30
2022/09/09 03:17:04;;;;;;;9.98;3.97;;;;;;;17.34;65.35;100298.97;5068937;28;20068;-30
2022/09/09 03:19:30;;;;;;;9.82;3.88;;;;;;;17.40;65.32;100282.56;5050809;28;20667;-28
2022/09/09 03:21:56;;;;;;;7.75;4.13;;;;;;;17.24;66.61;100278.97;5050181;28;20542;-28
2022/09/09 03:24:22;;;;;;;9.77;3.70;;;;;;;16.99;66.94;100276.84;5068377;28;20028;-27
2022/09/09 03:26:48;;;;;;;6.60;3.22;;;;;;;17.26;65.70;100287.59;5068751;28;20033;-29
2022/09/09 03:29:14;;;;;;;10.88;3.70;;;;;;;17.23;66.53;100298.88;5068524;28;20027;-31
2022/09/09 03:31:40;;;;;;;6.85;3.67;;;;;;;17.26;66.07;100313.72;5050367;28;20060;-27
2022/09/09 03:34:06;;;;;;;9.95;3.88;;;;;;;16.98;67.25;100286.03;5050140;28;20710;-30
2022/09/09 03:36:32;;;;;;;7.75;3.55;;;;;;;17.11;66.60;100284.78;5068264;28;20043;-30
2022/09/09 03:38:57;;;;;;;6.15;3.50;;;;;;;17.16;67.48;100298.31;5050189;28;20042;-28
2022/09/09 03:41:23;;;;;;;8.32;3.78;;;;;;;17.03;67.62;100283.34;5068371;28;20029;-31
2022/09/09 03:43:53;;;;;;;11.52;3.95;;;;;;;17.02;68.31;100297.06;5068321;28;20508;-31
2022/09/09 03:46:23;;;;;;;13.27;4.22;;;;;;;17.41;66.25;100286.09;5050186;28;20029;-29
2022/09/09 03:48:49;;;;;;;11.38;4.38;;;;;;;17.67;65.47;100293.28;5049696;28;20021;-28
2022/09/09 03:51:15;;;;;;;10.55;4.40;;;;;;;17.76;65.28;100295.50;5067988;28;20614;-31
2022/09/09 03:53:41;;;;;;;12.95;4.35;;;;;;;17.49;65.91;100299.09;5068039;28;20024;-28
2022/09/09 03:56:07;;;;;;;10.77;4.13;;;;;;;17.62;65.37;100303.22;5049722;28;20035;-30
2022/09/09 03:58:34;;;;;;;11.00;4.70;;;;;;;17.66;65.45;100307.81;5067765;28;20028;-28
2022/09/09 04:01:00;;;;;;;13.52;4.25;;;;;;;17.45;65.32;100295.28;5067828;28;20041;-28
2022/09/09 04:03:27;;;;;;;10.65;3.85;;;;;;;17.59;66.42;100311.81;5065811;28;20147;-33
2022/09/09 04:05:53;;;;;;;10.30;3.75;;;;;;;17.46;67.25;100310.38;5049890;28;20067;-29
2022/09/09 04:08:20;;;;;;;12.25;5.00;;;;;;;17.06;67.90;100309.81;5049657;28;20544;-31
2022/09/09 04:10:47;;;;;;;13.82;4.45;;;;;;;17.36;65.80;100304.91;5067725;28;20507;-28
2022/09/09 04:13:14;;;;;;;11.85;4.13;;;;;;;17.50;65.74;100313.38;5049567;28;20025;-31
2022/09/09 04:15:40;;;;;;;7.72;3.85;;;;;;;17.43;66.59;100316.31;5049350;28;20123;-27
2022/09/09 04:18:06;;;;;;;11.15;4.50;;;;;;;17.38;66.91;100310.84;5067354;28;20032;-28
2022/09/09 04:20:32;;;;;;;8.98;4.03;;;;;;;17.39;66.53;100313.31;5049175;28;20475;-29
2022/09/09 04:22:57;;;;;;;9.15;3.92;;;;;;;16.71;69.92;100301.34;5067077;28;20028;-27
2022/09/09 04:25:23;;;;;;;11.77;4.13;;;;;;;16.48;71.67;100320.22;5066935;28;20047;-27
2022/09/09 04:27:57;;;;;;;12.68;4.35;;;;;;;16.47;71.25;100302.44;5067214;28;20025;-30
2022/09/09 04:30:23;;;;;;;20.90;5.57;;;;;;;16.29;71.94;100308.16;5048892;28;20038;-30
2022/09/09 04:32:49;;;;;;;22.02;5.47;;;;;;;16.14;73.18;100313.31;5049188;28;20075;-27
2022/09/09 04:35:14;;;;;;;10.30;5.00;;;;;;;15.86;74.35;100313.25;5067226;28;20036;-32
2022/09/09 04:37:40;;;;;;;12.30;5.53;;;;;;;15.86;73.76;100318.63;5067205;28;20524;-29
2022/09/09 04:40:09;;;;;;;8.40;5.40;;;;;;;15.97;73.54;100313.38;5049094;28;20024;-28
2022/09/09 04:42:39;;;;;;;11.32;5.28;;;;;;;15.91;73.40;100315.19;5066770;28;20033;-29
2022/09/09 04:45:06;;;;;;;9.05;5.28;;;;;;;16.27;72.69;100316.47;5048993;28;20036;-29
2022/09/09 04:47:32;;;;;;;9.45;4.72;;;;;;;16.06;72.84;100291.19;5049153;28;20059;-27
2022/09/09 04:49:58;;;;;;;8.35;4.93;;;;;;;16.15;72.75;100293.44;5049116;28;20551;-34
2022/09/09 04:52:23;;;;;;;12.05;4.90;;;;;;;16.21;71.69;100287.06;5048608;28;20039;-28
2022/09/09 04:54:49;;;;;;;11.40;5.25;;;;;;;16.34;71.42;100312.78;5066914;28;20016;-28
2022/09/09 04:57:14;;;;;;;8.40;5.18;;;;;;;16.36;71.47;100294.50;5066924;28;20039;-27
2022/09/09 04:59:40;;;;;;;12.18;5.38;;;;;;;16.37;72.18;100298.81;5066574;28;20032;-29
2022/09/09 05:02:05;;;;;;;9.65;5.35;;;;;;;16.48;71.78;100298.66;5066945;28;20039;-28
2022/09/09 05:04:31;;;;;;;9.65;5.63;;;;;;;16.47;71.49;100297.06;5066287;28;20579;-27
2022/09/09 05:06:56;;;;;;;10.45;6.07;;;;;;;16.71;70.16;100296.75;5066935;28;20025;-29
2022/09/09 05:09:22;;;;;;;9.13;6.20;;;;;;;16.78;71.15;100318.91;5066831;28;20039;-33
2022/09/09 05:11:48;;;;;;;9.90;6.28;;;;;;;17.13;69.50;100309.59;5067023;28;20176;-28
2022/09/09 05:14:14;;;;;;;7.63;5.65;;;;;;;17.15;69.83;100329.00;5066617;28;20028;-29
2022/09/09 05:16:40;;;;;;;9.82;6.30;;;;;;;17.33;68.80;100341.28;5066601;28;20377;-27
2022/09/09 05:19:07;;;;;;;7.95;5.70;;;;;;;17.85;67.16;100327.13;5066890;28;20115;-27
2022/09/09 05:21:34;;;;;;;12.50;6.13;;;;;;;17.75;67.21;100321.63;5066775;28;20029;-27
2022/09/09 05:24:00;;;;;;;10.50;5.90;;;;;;;17.61;67.62;100334.78;5048732;28;20037;-27
2022/09/09 05:26:26;;;;;;;11.70;6.18;;;;;;;17.89;67.50;100327.41;5066602;28;20059;-27
2022/09/09 05:28:52;;;;;;;12.60;6.68;;;;;;;18.21;65.81;100321.91;5066729;28;20107;-29
2022/09/09 05:31:18;;;;;;;11.68;6.00;;;;;;;18.31;65.56;100323.84;5065652;28;20063;-29
2022/09/09 05:33:45;;;;;;;9.50;4.88;;;;;;;18.10;65.99;100333.72;5048660;28;20079;-27
2022/09/09 05:36:16;;;;;;;7.60;5.20;;;;;;;18.25;65.82;100308.72;5051571;28;20037;-27
2022/09/09 05:38:43;;;;;;;8.75;5.22;;;;;;;18.41;65.50;100326.59;5052330;28;20032;-28
2022/09/09 05:41:10;;;;;;;9.45;5.38;;;;;;;18.67;64.47;100313.16;5052351;28;20039;-30
2022/09/09 05:43:37;;;;;;;11.48;5.68;;;;;;;19.04;63.84;100331.06;5070348;28;20035;-32
2022/09/09 05:46:07;;;;;;;8.57;5.20;;;;;;;19.12;64.98;100324.34;5052489;28;20039;-33
2022/09/09 05:48:34;;;;;;;7.55;5.25;;;;;;;19.24;63.36;100317.56;5068842;28;20036;-28
2022/09/09 05:51:02;;;;;;;9.05;5.07;;;;;;;19.14;62.92;100314.88;5070436;28;20139;-29
2022/09/09 05:53:32;;;;;;;10.23;4.97;;;;;;;19.37;63.18;100339.75;5070320;28;20032;-29
2022/09/09 05:56:05;;;;;;;10.02;5.15;;;;;;;19.20;63.25;100335.41;5070138;28;20037;-29
2022/09/09 05:58:34;;;;;;;11.32;4.70;;;;;;;19.52;65.08;100337.06;5070104;28;20035;-28
2022/09/09 06:01:08;;;;;;;7.72;4.68;;;;;;;19.71;63.50;100333.81;5070188;28;20107;-28
2022/09/09 06:03:35;;;;;;;9.38;5.10;;;;;;;19.95;62.31;100313.19;5051660;28;20147;-28
2022/09/09 06:06:05;;;;;;;6.75;4.63;;;;;;;20.04;61.41;100319.66;5051866;28;20520;-30
2022/09/09 06:08:32;;;;;;;8.52;4.32;;;;;;;20.27;62.10;100325.53;5051521;28;20496;-27
2022/09/09 06:11:02;;;;;;;12.23;6.47;;;;;;;20.33;60.96;100323.59;5070122;28;20056;-29
2022/09/09 06:13:28;;;;;;;9.93;5.90;;;;;;;20.54;61.20;100330.56;5051802;28;20029;-38
2022/09/09 06:15:54;;;;;;;9.98;4.75;;;;;;;20.79;60.30;100340.47;5069992;28;20461;-32
2022/09/09 06:18:19;;;;;;;6.78;4.15;;;;;;;20.79;60.56;100340.47;5069687;28;20025;-35
2022/09/09 06:20:56;;;;;;;6.85;4.30;;;;;;;20.93;60.05;100334.44;5069679;28;20029;-33
2022/09/09 06:23:22;;;;;;;13.57;5.00;;;;;;;21.08;59.76;100334.31;5051952;28;20033;-30
2022/09/09 06:25:48;;;;;;;8.80;4.82;;;;;;;20.87;58.79;100318.19;5069751;28;20385;-29
2022/09/09 06:28:15;;;;;;;12.23;7.43;;;;;;;20.97;58.90;100317.31;5051614;28;20024;-29
2022/09/09 06:30:41;;;;;;;11.45;6.15;;;;;;;20.79;59.19;100305.22;5069341;28;20459;-27
2022/09/09 06:33:06;;;;;;;18.75;10.93;;;;;;;20.76;57.98;100316.66;5051658;28;20097;-28
2022/09/09 06:35:32;;;;;;;12.48;5.55;;;;;;;20.85;58.01;100323.09;5069222;28;20037;-30
2022/09/09 06:37:58;;;;;;;9.38;4.20;;;;;;;20.99;58.59;100306.19;5069548;28;20103;-29
2022/09/09 06:40:24;;;;;;;12.38;5.72;;;;;;;21.21;57.76;100300.34;5051280;28;20405;-31
2022/09/09 06:42:51;;;;;;;14.00;6.25;;;;;;;21.37;57.70;100304.53;5051216;28;20107;-31
2022/09/09 06:45:17;;;;;;;7.40;4.68;;;;;;;21.57;57.12;100305.47;5051277;28;20047;-28
2022/09/09 06:47:43;;;;;;;6.43;3.00;;;;;;;21.48;57.37;100294.44;5068269;28;20174;-29
2022/09/09 06:50:10;;;;;;;9.40;3.63;;;;;;;21.57;57.40;100314.41;5050929;28;20849;-32
2022/09/09 06:52:35;;;;;;;7.83;2.90;;;;;;;21.83;56.43;100316.88;5051111;28;20487;-29
2022/09/09 06:55:01;;;;;;;6.43;2.88;;;;;;;22.10;56.84;100319.00;5069221;28;20024;-28
2022/09/09 06:57:26;;;;;;;8.85;2.97;;;;;;;22.25;56.93;100318.03;5069670;28;20554;-29
2022/09/09 06:59:52;;;;;;;4.95;2.90;;;;;;;22.30;54.61;100309.84;5069265;28;20027;-27
2022/09/09 07:02:17;;;;;;;7.07;3.03;;;;;;;22.04;54.29;100312.00;5069267;28;20020;-34
2022/09/09 07:04:43;;;;;;;6.72;2.80;;;;;;;22.19;54.20;100305.59;5068909;28;20131;-28
2022/09/09 07:07:09;;;;;;;5.57;3.00;;;;;;;;;;5069285;28;20111;-29
2022/09/09 07:09:35;;;;;;;5.35;3.20;;;;;;;22.42;54.29;100317.56;5068899;28;20119;-28
2022/09/09 07:12:00;;;;;;;7.68;3.53;;;;;;;22.60;54.97;100321.41;5069118;28;20181;-28
2022/09/09 07:14:26;;;;;;;6.75;2.90;;;;;;;22.53;53.91;100337.25;5050247;28;20037;-28
2022/09/09 07:16:52;;;;;;;6.25;3.38;;;;;;;22.76;52.98;100338.28;5068717;28;20036;-30
2022/09/09 07:19:17;;;;;;;5.68;3.63;;;;;;;22.59;54.13;100323.28;5068298;28;20032;-32
2022/09/09 07:21:43;;;;;;;6.65;3.28;;;;;;;22.78;53.98;100331.47;5068768;28;20036;-27
2022/09/09 07:24:10;;;;;;;5.55;3.30;;;;;;;22.92;52.69;100345.13;5068734;28;20567;-29
2022/09/09 07:26:38;;;;;;;4.90;3.47;;;;;;;23.14;51.92;100350.00;5068607;28;20091;-28
2022/09/09 07:29:03;;;;;;;6.03;3.63;;;;;;;23.18;51.86;100342.84;5050498;28;20300;-29
2022/09/09 07:31:36;;;;;;;5.03;3.60;;;;;;;23.22;53.68;100352.03;5067014;28;20040;-28
2022/09/09 07:34:02;;;;;;;6.63;3.72;;;;;;;23.33;51.72;100347.25;5068444;28;20031;-30
2022/09/09 07:36:32;;;;;;;6.50;3.50;;;;;;;23.67;49.44;100351.56;5050256;28;20056;-30
2022/09/09 07:39:03;;;;;;;4.07;3.08;;;;;;;23.72;50.39;100347.94;5067179;28;20020;-27
2022/09/09 07:41:33;;;;;;;8.05;3.70;;;;;;;23.78;50.92;100344.06;5068475;28;20039;-28
2022/09/09 07:44:00;;;;;;;8.30;3.65;;;;;;;23.70;51.48;100314.75;5050388;28;20031;-30
2022/09/09 07:46:26;;;;;;;6.25;3.63;;;;;;;24.04;50.63;100334.28;5049604;28;20102;-31
2022/09/09 07:48:54;;;;;;;8.05;3.67;;;;;;;24.35;49.94;100339.13;5050228;28;20078;-28
2022/09/09 07:51:23;;;;;;;8.50;3.30;;;;;;;24.44;49.67;100348.19;5049959;28;20036;-28
2022/09/09 07:53:53;;;;;;;6.15;3.53;;;;;;;24.44;49.74;100337.31;5049986;28;20087;-28
2022/09/09 07:56:22;;;;;;;5.90;3.70;;;;;;;24.32;49.54;100312.47;5049834;28;20035;-29
2022/09/09 07:58:48;;;;;;;6.43;4.00;;;;;;;24.20;50.23;100293.91;5049746;28;20193;-28
2022/09/09 08:01:20;;;;;;;8.20;3.78;;;;;;;24.11;50.05;100317.56;5049674;28;20040;-30
2022/09/09 08:03:52;;;;;;;7.97;4.10;;;;;;;24.51;49.56;100300.66;5049657;28;20057;-29
2022/09/09 08:06:18;;;;;;;8.00;3.80;;;;;;;24.64;48.91;100302.53;5067862;28;20051;-31
2022/09/09 08:08:43;;;;;;;9.18;4.15;;;;;;;24.68;48.69;100300.81;5067590;28;20033;-31
2022/09/09 08:11:14;;;;;;;8.82;4.13;;;;;;;24.60;48.17;100291.47;5049541;28;20085;-28
2022/09/09 08:13:42;;;;;;;6.82;4.22;;;;;;;24.93;47.86;100299.44;5049619;28;20494;-28
2022/09/09 08:16:21;;;;;;;6.65;4.35;;;;;;;25.08;46.93;100302.91;5049686;28;20495;-29
2022/09/09 08:18:51;;;;;;;6.15;3.78;;;;;;;25.25;46.16;100295.66;5067947;28;20032;-28
2022/09/09 08:21:43;;;;;;;7.97;4.22;;;;;;;25.44;45.50;100289.19;5067898;28;20052;-29
2022/09/09 08:24:10;;;;;;;8.15;4.28;;;;;;;25.48;46.23;100281.97;5046407;28;20040;-28
2022/09/09 08:26:41;;;;;;;6.05;4.32;;;;;;;25.78;45.56;100290.44;5049346;28;20028;-31
2022/09/09 08:29:09;;;;;;;5.95;4.05;;;;;;;25.55;45.65;100276.88;5067846;28;20529;-28
2022/09/09 08:31:40;;;;;;;7.70;4.43;;;;;;;25.80;45.48;100283.53;5049302;28;20028;-27
2022/09/09 08:34:07;;;;;;;6.03;4.50;;;;;;;26.02;46.20;100284.63;5049300;28;20032;-30
2022/09/09 08:36:40;;;;;;;6.93;4.35;;;;;;;25.90;45.96;100284.44;5066898;28;20024;-40
2022/09/09 08:39:07;;;;;;;5.95;4.25;;;;;;;26.00;44.57;100265.81;5067477;28;20128;-33
2022/09/09 08:41:50;;;;;;;7.97;4.13;;;;;;;26.22;44.15;100278.56;5067212;28;20025;-28
2022/09/09 08:44:27;;;;;;;8.27;4.85;;;;;;;26.26;45.45;100278.72;5067254;28;20028;-28
2022/09/09 08:47:30;;;;;;;9.07;4.67;;;;;;;26.43;43.53;100276.00;5048880;28;20024;-28
2022/09/09 08:50:25;;;;;;;8.00;4.53;;;;;;;26.52;45.44;100250.59;5067080;28;20048;-29
2022/09/09 08:53:10;;;;;;;8.38;5.07;;;;;;;26.65;45.43;100274.28;5066933;28;20028;-33
2022/09/09 08:55:51;;;;;;;8.25;4.75;;;;;;;26.40;43.86;100267.66;5048870;28;20778;-29
2022/09/09 08:58:22;;;;;;;10.00;5.60;;;;;;;26.67;44.80;100261.09;5066925;28;20028;-28
2022/09/09 09:00:59;;;;;;;12.70;5.75;;;;;;;27.01;44.71;100259.44;5048717;28;20103;-31
2022/09/09 09:04:07;;;;;;;6.30;4.53;;;;;;;27.13;44.96;100265.03;5064958;28;20056;-33
2022/09/09 09:06:50;;;;;;;7.82;4.78;;;;;;;27.04;42.75;100267.00;5048835;28;20032;-28
2022/09/09 09:09:30;;;;;;;8.68;4.68;;;;;;;26.78;43.35;100256.09;5048629;28;20040;-30
2022/09/09 09:12:01;;;;;;;7.43;5.13;;;;;;;26.81;42.77;100248.03;5048955;28;20032;-30
2022/09/09 09:14:30;;;;;;;8.95;4.90;;;;;;;26.99;42.38;100251.56;5066857;28;20074;-31
2022/09/09 09:17:15;;;;;;;6.93;4.90;;;;;;;26.63;42.57;100243.72;5066958;28;20024;-29
2022/09/09 09:19:43;;;;;;;6.93;4.82;;;;;;;26.91;42.24;100237.88;5066819;28;20035;-30
2022/09/09 09:22:29;;;;;;;8.50;4.70;;;;;;;27.27;41.99;100239.44;5066609;28;20121;-31
2022/09/09 09:25:21;;;;;;;7.15;5.18;;;;;;;27.58;41.36;100245.47;5048726;28;20025;-29
2022/09/09 09:28:17;;;;;;;8.23;4.97;;;;;;;27.92;41.33;100240.16;5065205;28;20033;-28
2022/09/09 09:30:48;;;;;;;6.25;4.78;;;;;;;27.75;42.93;100247.31;5066094;28;20086;-31
2022/09/09 09:33:36;;;;;;;6.20;4.78;;;;;;;27.82;40.38;100225.66;5066917;28;20036;-33
2022/09/09 09:36:02;;;;;;;;;;;;;;;27.71;40.92;100242.81;5066985;28;20032;-32
2022/09/09 09:38:28;;;;;;;8.43;5.17;;;;;;;27.74;41.64;100215.53;5064926;28;20391;-29
2022/09/09 09:41:00;;;;;;;6.88;5.00;;;;;;;28.02;41.80;100232.34;5048135;28;20020;-29
2022/09/09 09:43:34;;;;;;;7.00;5.32;;;;;;;28.08;39.83;100234.91;5066586;28;20021;-31
2022/09/09 09:46:03;;;;;;;8.15;5.28;;;;;;;28.48;40.21;100223.47;5048344;28;20043;-28
2022/09/09 09:48:28;;;;;;;9.93;5.40;;;;;;;28.42;40.12;100214.63;5048078;28;20025;-29
2022/09/09 09:51:00;;;;;;;6.95;5.13;;;;;;;28.22;39.85;100208.03;5048358;28;20028;-28
2022/09/09 09:53:29;;;;;;;6.68;5.10;;;;;;;28.23;40.80;100198.66;5048281;28;20058;-33
2022/09/09 09:56:07;;;;;;;7.90;5.13;;;;;;;28.92;39.32;100201.94;5048377;28;20029;-29
2022/09/09 09:58:45;;;;;;;11.38;5.38;;;;;;;28.90;37.81;100204.22;5066318;28;20518;-31
2022/09/09 10:01:27;;;;;;;7.47;5.85;;;;;;;29.32;37.51;100215.88;5064666;28;20080;-29
2022/09/09 10:04:15;;;;;;;8.07;5.60;;;;;;;29.84;37.57;100211.66;5064402;28;20053;-29
2022/09/09 10:06:41;;;;;;;9.70;5.15;;;;;;;29.93;36.95;100201.31;5066115;28;20024;-31
2022/09/09 10:09:25;;;;;;;11.25;6.05;;;;;;;29.91;36.50;100205.56;5048209;28;20150;-28
2022/09/09 10:12:20;;;;;;;9.25;5.35;;;;;;;29.55;37.65;100191.50;5047982;28;20081;-28
2022/09/09 10:15:06;;;;;;;8.02;5.18;;;;;;;29.45;37.04;100175.47;5063404;28;20044;-29
2022/09/09 10:17:59;;;;;;;7.50;5.10;;;;;;;29.90;37.15;100180.03;5066219;28;20474;-31
2022/09/09 10:20:33;;;;;;;6.28;5.10;;;;;;;30.08;37.15;100185.25;5047809;28;20277;-29
2022/09/09 10:23:26;;;;;;;7.72;5.15;;;;;;;30.46;36.18;100167.50;5050000;28;20415;-32
2022/09/09 10:26:19;;;;;;;7.35;5.28;;;;;;;30.67;36.46;100165.34;5069898;28;20048;-31
2022/09/09 10:29:03;;;;;;;8.05;5.72;;;;;;;31.01;37.34;100176.88;5051422;28;20032;-29
2022/09/09 10:32:02;;;;;;;8.75;5.03;;;;;;;30.66;35.28;100166.50;5069601;28;20021;-30
2022/09/09 10:34:57;;;;;;;8.75;5.07;;;;;;;30.92;37.56;100168.00;5067573;28;20067;-31
2022/09/09 10:38:01;;;;;;;6.43;5.13;;;;;;;30.61;34.61;100158.50;5051241;28;20021;-29
2022/09/09 10:40:56;;;;;;;7.22;4.97;;;;;;;30.73;35.32;100152.13;5027202;28;20047;-30
2022/09/09 10:43:27;;;;;;;7.03;4.97;;;;;;;30.85;35.54;100152.03;5067788;28;20028;-28
2022/09/09 10:45:59;;;;;;;9.13;5.85;;;;;;;31.28;34.06;100152.34;5069335;28;20611;-33
2022/09/09 10:48:43;;;;;;;6.45;5.00;;;;;;;30.95;35.76;100145.25;5067606;28;20120;-33
2022/09/09 10:51:11;;;;;;;6.97;5.20;;;;;;;30.84;35.16;100140.22;5067906;28;20127;-28
2022/09/09 10:53:53;;;;;;;7.82;5.10;;;;;;;31.38;34.71;100138.03;5068955;28;20036;-29
2022/09/09 10:56:23;;;;;;;8.40;5.10;;;;;;;31.48;35.99;100137.50;5067985;28;20036;-33
2022/09/09 10:59:14;;;;;;;8.05;5.15;;;;;;;31.81;33.97;100136.25;5050971;28;20419;-32
2022/09/09 11:01:46;;;;;;;7.20;5.30;;;;;;;32.02;33.37;100131.22;5059177;28;20050;-29
2022/09/09 11:04:34;;;;;;;6.38;5.10;;;;;;;32.07;33.67;100118.31;5050523;28;20512;-28
2022/09/09 11:07:05;;;;;;;6.70;4.53;;;;;;;32.46;32.87;100121.81;5050844;28;20028;-31
2022/09/09 11:09:38;;;;;;;5.88;4.90;;;;;;;32.21;32.09;100111.09;5067347;28;20024;-31
2022/09/09 11:12:05;;;;;;;6.55;4.82;;;;;;;32.42;35.15;100110.69;5050695;28;20056;-29
2022/09/09 11:14:49;;;;;;;8.18;4.85;;;;;;;32.88;32.44;100114.72;5050261;28;20060;-31
2022/09/09 11:17:27;;;;;;;6.57;4.93;;;;;;;32.29;31.90;100095.50;5067632;28;20040;-31
2022/09/09 11:19:53;;;;;;;6.82;4.63;;;;;;;32.62;32.82;100110.72;5067337;28;20043;-31
2022/09/09 11:22:26;;;;;;;6.55;4.65;;;;;;;32.60;31.71;100113.03;5068792;28;20025;-33
2022/09/09 11:25:06;;;;;;;6.30;4.93;;;;;;;33.02;32.23;100106.66;5050663;28;20020;-28
2022/09/09 11:27:59;;;;;;;7.40;4.43;;;;;;;33.11;31.83;100095.38;5050768;28;20032;-29
2022/09/09 11:30:26;;;;;;;6.68;4.50;;;;;;;33.13;30.95;100080.00;5068288;28;20024;-29
2022/09/09 11:33:37;;;;;;;7.60;5.22;;;;;;;33.08;31.56;100085.88;5068225;28;20036;-28
2022/09/09 11:36:02;;;;;;;6.60;4.75;;;;;;;33.16;33.12;100087.56;5029626;28;20109;-31
2022/09/09 11:38:47;;;;;;;7.38;4.28;;;;;;;33.06;31.19;100087.34;5067892;28;20411;-28
2022/09/09 11:41:14;;;;;;;7.68;4.72;;;;;;;33.03;31.49;100066.78;5050265;28;20422;-30
2022/09/09 11:43:41;;;;;;;6.78;4.60;;;;;;;33.50;31.01;100068.28;5049936;28;20089;-31
2022/09/09 11:46:08;;;;;;;10.75;4.38;;;;;;;33.51;31.06;100061.59;5049616;28;20392;-29
2022/09/09 11:48:45;;;;;;;6.07;4.80;;;;;;;33.45;30.49;100063.09;5049842;28;20033;-29